Time;durP1;ratioP1;P1;durP2;ratioP2;P2;SDS_P1;SDS_P2;PMS_P1;PMS_P2;Temp;Humidity;BMP_temperature;BMP_pressure;BME280_temperature;BME280_humidity;BME280_pressure;Samples;Min_cycle;Max_cycle;Signal;HPM_P1;HPM_P2
2023/07/31 03:26:55;;;;;;;9.20;2.53;;;;;;;;;;6141238;23;20161;-91
2023/07/31 03:30:01;;;;;;;7.15;2.60;;;;;;;;;;6142642;23;20221;-93
2023/07/31 03:33:07;;;;;;;8.05;2.75;;;;;;;;;;6123766;23;20174;-93
2023/07/31 03:40:33;;;;;;;8.40;2.67;;;;;;;;;;6140444;23;20214;-92
2023/07/31 03:43:40;;;;;;;7.57;2.83;;;;;;;;;;6124806;23;20154;-93
2023/07/31 03:46:45;;;;;;;4.90;2.50;;;;;;;;;;6142540;23;20238;-93
2023/07/31 03:49:55;;;;;;;7.85;2.65;;;;;;;;;;6125362;23;20221;-94
2023/07/31 03:53:00;;;;;;;10.02;3.03;;;;;;;;;;6130604;23;20211;-93
2023/07/31 03:56:05;;;;;;;9.38;3.03;;;;;;;;;;6126332;23;20525;-96
2023/07/31 04:07:25;;;;;;;7.47;2.63;;;;;;;;;;6147491;23;20211;-93
2023/07/31 04:10:33;;;;;;;9.15;2.90;;;;;;;;;;6131777;23;20169;-93
2023/07/31 04:13:39;;;;;;;6.22;2.80;;;;;;;;;;6114757;23;20157;-93
2023/07/31 04:16:46;;;;;;;6.97;3.38;;;;;;;;;;6130383;23;20149;-95
2023/07/31 04:19:52;;;;;;;6.18;3.10;;;;;;;;;;6131071;23;20157;-94
2023/07/31 04:22:59;;;;;;;11.23;3.00;;;;;;;;;;6130251;23;20169;-93
2023/07/31 04:26:07;;;;;;;9.43;3.58;;;;;;;;;;6130262;23;20193;-94
2023/07/31 04:29:12;;;;;;;10.35;3.40;;;;;;;;;;6128482;23;20293;-93
2023/07/31 04:36:39;;;;;;;8.10;3.13;;;;;;;;;;6145029;23;20205;-93
2023/07/31 04:39:50;;;;;;;5.90;2.85;;;;;;;;;;6128581;23;20238;-93
2023/07/31 09:22:32;;;;;;;3.53;1.55;;;;;;;;;;6277745;22;20170;-93
2023/07/31 09:25:38;;;;;;;5.55;1.70;;;;;;;;;;6278086;22;20161;-93
2023/07/31 09:28:48;;;;;;;7.20;1.58;;;;;;;;;;6276553;22;20217;-93
2023/07/31 09:31:55;;;;;;;4.78;1.95;;;;;;;;;;6277812;22;20292;-93
2023/07/31 09:52:19;;;;;;;4.40;1.30;;;;;;;;;;6299076;22;20210;-92
2023/07/31 10:03:10;;;;;;;3.50;1.70;;;;;;;;;;6299215;22;20212;-94
2023/07/31 10:06:22;;;;;;;4.63;1.90;;;;;;;;;;6280305;22;20170;-94
2023/07/31 10:09:51;;;;;;;8.73;1.50;;;;;;;;;;6298817;22;20213;-94
2023/07/31 10:12:57;;;;;;;4.53;1.30;;;;;;;;;;6277241;22;20162;-91
2023/07/31 10:16:06;;;;;;;3.75;1.40;;;;;;;;;;6276376;22;20166;-93
2023/07/31 10:19:13;;;;;;;3.65;1.70;;;;;;;;;;6276537;22;20229;-93
2023/07/31 10:22:19;;;;;;;2.97;1.52;;;;;;;;;;6275169;22;20201;-92
2023/07/31 10:25:28;;;;;;;4.25;1.70;;;;;;;;;;6276947;22;20150;-92
2023/07/31 10:28:39;;;;;;;7.18;1.50;;;;;;;;;;6276626;22;20197;-93
2023/07/31 10:31:45;;;;;;;5.28;1.45;;;;;;;;;;6278749;22;20185;-93
2023/07/31 10:39:35;;;;;;;4.72;1.60;;;;;;;;;;6295226;22;20223;-93
2023/07/31 10:42:48;;;;;;;5.35;1.60;;;;;;;;;;6280958;22;20165;-93
2023/07/31 10:45:56;;;;;;;4.72;1.75;;;;;;;;;;6280383;22;20221;-94
2023/07/31 10:49:03;;;;;;;4.25;1.50;;;;;;;;;;6279061;22;20181;-92
2023/07/31 10:52:12;;;;;;;5.07;1.42;;;;;;;;;;6281070;22;20211;-90
2023/07/31 11:03:04;;;;;;;7.07;2.10;;;;;;;;;;6298778;22;20154;-93
2023/07/31 11:06:12;;;;;;;5.07;1.58;;;;;;;;;;6278688;22;20154;-94
2023/07/31 11:09:18;;;;;;;7.63;1.65;;;;;;;;;;6280014;22;20270;-93
2023/07/31 11:12:27;;;;;;;2.90;1.67;;;;;;;;;;6279963;22;20181;-91
2023/07/31 11:19:11;;;;;;;4.82;1.70;;;;;;;;;;6282945;22;20216;-91
2023/07/31 11:22:18;;;;;;;4.32;1.55;;;;;;;;;;6283806;22;20246;-91
2023/07/31 11:25:25;;;;;;;5.18;1.90;;;;;;;;;;6284515;22;20232;-92
2023/07/31 11:28:35;;;;;;;3.72;1.80;;;;;;;;;;6283525;22;20244;-91
2023/07/31 14:28:37;;;;;;;6.53;3.17;;;;;;;;;;6220269;22;20277;-89
2023/07/31 14:32:25;;;;;;;4.97;1.88;;;;;;;;;;6273553;22;20165;-91
2023/07/31 14:35:59;;;;;;;4.32;1.65;;;;;;;;;;6273458;22;20169;-90
2023/07/31 14:39:04;;;;;;;3.28;1.65;;;;;;;;;;6275367;22;20227;-91
2023/07/31 14:42:09;;;;;;;3.38;1.60;;;;;;;;;;6274722;22;20169;-92
2023/07/31 14:45:15;;;;;;;3.33;1.67;;;;;;;;;;6274911;22;20208;-90
2023/07/31 14:48:21;;;;;;;2.33;1.38;;;;;;;;;;6275701;22;20188;-91
2023/07/31 14:51:27;;;;;;;3.55;1.50;;;;;;;;;;6277294;22;20160;-89
2023/07/31 14:54:32;;;;;;;13.27;1.60;;;;;;;;;;6273875;22;20176;-91
2023/07/31 14:57:38;;;;;;;4.15;1.55;;;;;;;;;;6274790;22;20164;-89
2023/07/31 15:05:06;;;;;;;5.93;3.10;;;;;;;;;;6295115;22;20173;-90
2023/07/31 15:08:11;;;;;;;4.90;1.77;;;;;;;;;;6276338;22;20200;-90
2023/07/31 15:11:18;;;;;;;4.72;1.60;;;;;;;;;;6276143;22;20217;-91
2023/07/31 15:14:23;;;;;;;5.80;1.60;;;;;;;;;;6275894;22;20220;-89
2023/07/31 15:17:29;;;;;;;4.30;2.00;;;;;;;;;;6275903;22;20172;-91
2023/07/31 15:20:37;;;;;;;5.13;1.95;;;;;;;;;;6275520;22;20178;-89
2023/07/31 15:27:08;;;;;;;7.50;1.48;;;;;;;;;;6281270;22;20149;-89
2023/07/31 15:30:16;;;;;;;5.07;1.75;;;;;;;;;;6280765;22;20224;-88
2023/07/31 15:33:22;;;;;;;5.70;2.30;;;;;;;;;;6280338;22;20185;-90
2023/07/31 15:40:18;;;;;;;5.13;1.70;;;;;;;;;;6279623;22;20161;-88
2023/07/31 15:43:23;;;;;;;8.00;2.28;;;;;;;;;;6277728;22;20162;-90
2023/07/31 15:46:29;;;;;;;4.50;1.60;;;;;;;;;;6275889;22;20189;-90
2023/07/31 15:49:36;;;;;;;8.68;1.80;;;;;;;;;;6265880;22;20205;-86
2023/07/31 15:52:42;;;;;;;3.50;1.83;;;;;;;;;;6284433;22;20153;-89
2023/07/31 15:55:55;;;;;;;3.50;1.65;;;;;;;;;;6285586;22;20161;-88
2023/07/31 16:03:22;;;;;;;7.40;2.03;;;;;;;;;;6302399;22;20153;-91
2023/07/31 16:06:28;;;;;;;4.00;1.80;;;;;;;;;;6280979;22;20173;-90
2023/07/31 16:09:45;;;;;;;6.10;1.85;;;;;;;;;;6279494;22;20209;-89
2023/07/31 16:12:52;;;;;;;4.32;1.75;;;;;;;;;;6279551;22;20182;-90
2023/07/31 16:15:58;;;;;;;4.32;1.50;;;;;;;;;;6280005;22;20166;-91
2023/07/31 16:19:06;;;;;;;3.63;1.42;;;;;;;;;;6278818;22;20165;-91
2023/07/31 16:22:11;;;;;;;5.30;1.90;;;;;;;;;;6277465;22;20169;-91
2023/07/31 16:25:17;;;;;;;4.05;1.70;;;;;;;;;;6276170;22;20233;-91
2023/07/31 16:28:23;;;;;;;6.03;1.85;;;;;;;;;;6278701;22;20169;-90
2023/07/31 16:31:31;;;;;;;5.60;1.70;;;;;;;;;;6276767;22;20208;-91
2023/07/31 16:35:01;;;;;;;6.45;2.70;;;;;;;;;;6281598;22;20170;-92
2023/07/31 16:38:06;;;;;;;6.20;1.80;;;;;;;;;;6280486;22;20176;-91
2023/07/31 16:41:13;;;;;;;5.95;2.05;;;;;;;;;;6279315;22;20228;-89
2023/07/31 16:44:21;;;;;;;3.50;1.75;;;;;;;;;;6283050;22;20660;-89
2023/07/31 16:47:26;;;;;;;3.30;1.77;;;;;;;;;;6278047;22;20169;-90
2023/07/31 16:50:31;;;;;;;6.13;1.80;;;;;;;;;;6277609;22;20238;-89
2023/07/31 16:53:38;;;;;;;5.57;1.95;;;;;;;;;;6279543;22;20165;-89
2023/07/31 16:56:48;;;;;;;5.88;1.85;;;;;;;;;;6278311;22;20659;-89
2023/07/31 16:59:56;;;;;;;7.63;2.40;;;;;;;;;;6277996;22;20166;-91
2023/07/31 17:03:03;;;;;;;4.43;2.22;;;;;;;;;;6280499;22;20174;-90
2023/07/31 17:06:08;;;;;;;3.90;2.05;;;;;;;;;;6278257;22;20233;-89
2023/07/31 17:09:13;;;;;;;4.05;2.00;;;;;;;;;;6278019;22;20197;-90
2023/07/31 17:12:19;;;;;;;7.15;2.05;;;;;;;;;;6278949;22;20164;-90
2023/07/31 17:15:29;;;;;;;9.13;6.50;;;;;;;;;;6280014;22;20548;-91
2023/07/31 17:18:35;;;;;;;10.50;3.55;;;;;;;;;;6279889;22;20185;-90
2023/07/31 19:58:25;;;;;;;8.25;2.60;;;;;;;;;;6216779;22;20190;-89
2023/07/31 20:01:34;;;;;;;8.60;3.17;;;;;;;;;;6247000;22;20169;-92
2023/07/31 20:08:00;;;;;;;5.45;2.25;;;;;;;;;;6249557;23;20166;-91
2023/07/31 20:11:05;;;;;;;8.82;2.40;;;;;;;;;;6249653;22;20206;-88
2023/07/31 20:14:12;;;;;;;7.55;2.60;;;;;;;;;;6250103;22;20171;-92
2023/07/31 20:17:27;;;;;;;9.18;3.28;;;;;;;;;;6249191;23;20166;-91
2023/07/31 20:20:32;;;;;;;11.80;2.60;;;;;;;;;;6251047;23;20169;-92
2023/07/31 20:23:40;;;;;;;7.65;2.50;;;;;;;;;;6249557;23;20227;-89
2023/07/31 20:26:47;;;;;;;6.82;2.63;;;;;;;;;;6247967;22;20150;-90
2023/07/31 20:29:53;;;;;;;6.45;2.80;;;;;;;;;;6248619;23;20186;-90
2023/07/31 20:33:00;;;;;;;6.78;3.22;;;;;;;;;;6248886;23;20166;-92
2023/07/31 20:36:07;;;;;;;5.65;2.80;;;;;;;;;;6263353;22;20171;-92
2023/07/31 20:39:16;;;;;;;11.88;3.33;;;;;;;;;;6246265;22;20506;-90
2023/07/31 20:42:23;;;;;;;7.82;3.08;;;;;;;;;;6245581;22;20215;-91
2023/07/31 20:45:30;;;;;;;9.82;3.42;;;;;;;;;;6246621;23;20195;-89
2023/07/31 20:48:37;;;;;;;6.10;2.83;;;;;;;;;;6246922;23;20170;-91
2023/07/31 20:51:43;;;;;;;5.90;2.80;;;;;;;;;;6245993;23;20167;-93
2023/07/31 20:54:51;;;;;;;6.72;2.90;;;;;;;;;;6245865;23;20186;-90
2023/07/31 20:57:57;;;;;;;10.15;2.92;;;;;;;;;;6246385;22;20190;-91
2023/07/31 21:01:02;;;;;;;6.20;2.78;;;;;;;;;;6245346;23;20194;-90
2023/07/31 21:04:10;;;;;;;8.13;2.85;;;;;;;;;;6245098;23;20162;-91
2023/07/31 21:07:15;;;;;;;9.18;3.10;;;;;;;;;;6246215;23;20166;-91
2023/07/31 21:10:21;;;;;;;5.40;2.88;;;;;;;;;;6245988;22;20243;-91
2023/07/31 21:13:28;;;;;;;11.00;3.20;;;;;;;;;;6243715;22;20214;-92
2023/07/31 21:16:58;;;;;;;7.90;2.95;;;;;;;;;;6243907;23;20162;-91
2023/07/31 21:20:05;;;;;;;6.00;3.15;;;;;;;;;;6243945;23;20170;-91
2023/07/31 21:23:11;;;;;;;11.65;3.33;;;;;;;;;;6243958;22;20231;-91
2023/07/31 21:26:16;;;;;;;5.40;3.05;;;;;;;;;;6243088;23;20163;-89
2023/07/31 21:29:23;;;;;;;8.82;3.30;;;;;;;;;;6242635;23;20259;-89
2023/07/31 21:32:33;;;;;;;11.50;3.65;;;;;;;;;;6246302;23;20170;-91
2023/07/31 21:36:01;;;;;;;10.10;3.33;;;;;;;;;;6245377;23;20209;-89
2023/07/31 21:39:25;;;;;;;7.63;4.10;;;;;;;;;;6246544;22;20833;-92
2023/07/31 21:42:30;;;;;;;8.55;3.47;;;;;;;;;;6246236;23;20170;-90
2023/07/31 21:45:37;;;;;;;7.65;3.65;;;;;;;;;;6244929;23;20286;-91
2023/07/31 21:48:44;;;;;;;8.00;4.22;;;;;;;;;;6247004;23;20150;-91
2023/07/31 21:51:51;;;;;;;7.20;3.80;;;;;;;;;;6247356;22;20170;-92
2023/07/31 21:54:57;;;;;;;5.53;2.92;;;;;;;;;;6246095;23;20171;-93
2023/07/31 23:07:11;;;;;;;11.00;3.67;;;;;;;;;;6246519;22;20247;-92
2023/07/31 23:10:19;;;;;;;9.23;3.25;;;;;;;;;;6276103;22;20636;-95
2023/07/31 23:13:24;;;;;;;6.18;3.10;;;;;;;;;;6273573;22;20190;-93
2023/07/31 23:16:29;;;;;;;9.95;3.30;;;;;;;;;;6273429;22;20197;-94
2023/07/31 23:19:34;;;;;;;9.05;3.28;;;;;;;;;;6273058;22;20180;-94
2023/07/31 23:22:39;;;;;;;8.30;3.40;;;;;;;;;;6273847;22;20166;-94
2023/07/31 23:25:49;;;;;;;7.78;3.10;;;;;;;;;;6292111;22;20170;-95
2023/07/31 23:28:56;;;;;;;7.78;3.47;;;;;;;;;;6272194;22;20166;-94
2023/07/31 23:36:21;;;;;;;6.65;3.05;;;;;;;;;;6290314;22;20169;-94
2023/07/31 23:39:27;;;;;;;10.65;3.40;;;;;;;;;;6272035;22;20241;-93
2023/07/31 23:42:34;;;;;;;8.57;3.30;;;;;;;;;;6272402;22;20181;-93
2023/07/31 23:45:39;;;;;;;9.80;3.20;;;;;;;;;;6271799;22;20206;-94
2023/07/31 23:48:45;;;;;;;6.30;3.15;;;;;;;;;;6275674;22;20214;-92
2023/07/31 23:51:52;;;;;;;6.65;3.40;;;;;;;;;;6278604;22;20217;-94
2023/07/31 23:54:57;;;;;;;7.85;3.05;;;;;;;;;;6273477;22;20244;-93
2023/07/31 23:58:09;;;;;;;6.70;3.40;;;;;;;;;;6274379;22;20231;-94
